Horse Creek, Wyoming
Current Conditions -  °F | °C
As of 2:01 PM on Monday 24 Nov 2014 (Local Time) from KFEW Reporting Station
Snow Showers Snow Showers  
Wind Chill: 10°   Ceiling: 400
Heat Index: 25°   Visibility: 0.18mi
Dew Point: 23°   Wind: 23mph
Humidity: 93%   Direction: 10°N
Pressure: 29.98"   Gusts: 33mph
Location:  41.41°N, 105.18°W
Report Text: KFEW 242101Z AUTO 01020G29KT 3/16SM -SHSN VV004 M04/M05 A2998 RMK AO2 VIS 3/16V3/4 CIG 004V038 $
Loading
Personal Weather Stations






























Interactive Weather Map New forecast layout! Learn more

10-Day Weather Forecast

Advertisements
Track Severe Weather on mobile